Latest Weather Observations for Kowanyama

IDQ60801

Issued at 5:32 am EST Sunday 14 February 2016 (issued every 30 minutes, with the page automatically refreshed every 10 minutes)

About weather observations | Map of weather stations | Latest weather observations for QLD | Other Formats
Station Details ID: 029038 Name: KOWANYAMA AIRPORT Lat: -15.48 Lon: 141.75 Height: 9.6 m
Data from the previous 72 hours. | See also: Recent months at Kowanyama
Date/Time
EST
Temp
°C
App
Temp
°C
Dew
Point
Rel
Hum
%
Delta-T
°C
Wind Press
QNH
hPa
Press
MSL
hPa
Rain
since 9 am
mm
Dir
 
Spd
km/h
Gust
km/h
Spd
kts
Gust
kts
14/05:30am 26.6 33.0 26.6 100 0.0 ENE 6 11 3 6 1007.3 1007.2 0.0
14/05:00am 26.5 32.8 26.5 100 0.0 NE 6 11 3 6 1006.8 1006.7 0.0
14/04:30am 26.6 34.1 26.6 100 0.0 CALM 0 2 0 1 1006.6 1006.5 0.0
14/04:00am 26.3 32.8 26.3 100 0.0 NE 4 7 2 4 1006.3 1006.2 0.0
14/03:30am 26.3 32.3 26.3 100 0.0 NE 7 13 4 7 1006.3 1006.2 0.0
14/03:00am 26.1 33.3 26.1 100 0.0 CALM 0 0 0 0 1006.1 1006.0 0.0
14/02:30am 26.2 33.4 26.2 100 0.0 CALM 0 0 0 0 1006.1 1006.0 0.0
14/02:00am 26.6 34.1 26.6 100 0.0 CALM 0 0 0 0 1006.2 1006.1 0.0
14/01:30am 26.6 34.1 26.6 100 0.0 CALM 0 0 0 0 1006.5 1006.4 0.0
14/01:00am 26.9 34.6 26.9 100 0.0 CALM 0 0 0 0 1006.6 1006.5 0.0
14/12:30am 27.1 34.6 27.1 100 0.0 WSW 2 7 1 4 1007.1 1007.0 0.0
14/12:00am 27.3 35.3 27.3 100 0.0 CALM 0 0 0 0 1007.6 1007.5 0.0
 
Date/Time
EST
Temp
°C
App
Temp
°C
Dew
Point
Rel
Hum
%
Delta-T
°C
Wind Press
QNH
hPa
Press
MSL
hPa
Rain
since 9 am
mm
Dir
 
Spd
km/h
Gust
km/h
Spd
kts
Gust
kts
13/11:30pm 27.5 34.5 27.5 100 0.0 WSW 6 7 3 4 1008.2 1008.1 0.0
13/11:00pm 27.5 34.5 27.5 100 0.0 W 6 7 3 4 1008.3 1008.2 0.0
13/10:30pm 27.7 35.1 27.5 99 0.1 W 4 6 2 3 1008.3 1008.2 0.0
13/10:00pm 28.0 35.4 27.5 97 0.4 W 4 7 2 4 1008.1 1008.0 0.0
13/09:30pm 28.1 34.7 27.2 95 0.6 WSW 7 11 4 6 1008.0 1007.9 0.0
13/09:00pm 28.2 34.9 27.1 94 0.8 WSW 6 9 3 5 1007.8 1007.7 0.0
13/08:30pm 28.6 35.5 27.4 93 0.9 WSW 6 9 3 5 1007.6 1007.5 0.0
13/08:00pm 28.9 35.7 27.5 92 1.0 W 7 9 4 5 1007.3 1007.2 0.0
13/07:30pm 29.5 35.8 27.3 88 1.6 W 9 13 5 7 1006.9 1006.8 0.0
13/07:00pm 30.0 35.8 27.2 85 2.0 W 11 15 6 8 1006.7 1006.6 0.0
13/06:30pm 30.6 36.5 27.8 85 2.0 WSW 13 17 7 9 1006.4 1006.3 0.0
13/06:00pm 30.9 36.2 27.5 82 2.5 W 15 20 8 11 1005.9 1005.8 0.0
13/05:30pm 31.1 36.3 27.4 81 2.7 WNW 15 20 8 11 1005.7 1005.6 0.0
13/05:00pm 33.2 38.5 28.6 77 3.4 WNW 19 24 10 13 1005.3 1005.2 0.0
13/04:30pm 32.8 39.6 27.3 73 4.0 WNW 6 20 3 11 1005.1 1005.0 0.0
13/04:00pm 34.8 41.8 26.4 61 6.1 SSE 2 7 1 4 1005.2 1005.1 0.0
13/03:30pm 34.4 40.9 26.3 62 5.8 S 4 15 2 8 1005.4 1005.3 0.0
13/03:00pm 34.6 40.9 26.8 64 5.7 S 7 13 4 7 1005.6 1005.5 0.0
13/02:30pm 34.5 41.9 27.5 67 5.1 NNE 4 13 2 7 1005.9 1005.8 0.0
13/02:00pm 34.2 41.9 26.9 65 5.3 CALM 0 6 0 3 1006.2 1006.1 0.0
13/01:30pm 33.4 40.6 26.7 68 4.8 S 2 9 1 5 1006.4 1006.3 0.0
13/01:00pm 34.0 41.5 27.7 69 4.6 ENE 4 13 2 7 1006.9 1006.8 0.0
13/12:30pm 33.7 41.5 27.0 68 4.9 CALM 0 6 0 3 1007.4 1007.3 0.0
13/12:00pm 32.9 39.4 26.2 68 4.8 ENE 4 11 2 6 1007.9 1007.8 0.0
13/11:30am 32.9 40.8 27.2 72 4.1 CALM 0 6 0 3 1008.4 1008.3 0.0
13/11:00am 32.2 39.2 27.0 74 3.8 E 4 13 2 7 1008.8 1008.7 0.0
13/10:30am 31.7 38.1 26.9 76 3.5 NNE 7 13 4 7 1009.3 1009.2 0.0
13/10:00am 31.0 36.7 26.5 77 3.2 NE 9 13 5 7 1009.5 1009.4 0.0
13/09:30am 30.4 36.3 26.8 81 2.6 NE 9 13 5 7 1009.6 1009.5 0.0
13/09:00am 29.7 35.7 26.9 85 2.0 NNE 9 13 5 7 1009.4 1009.3 0.0
13/08:30am 28.8 35.8 27.0 90 1.3 NNE 4 9 2 5 1009.1 1009.0 0.0
13/08:00am 27.8 35.2 27.5 98 0.2 NNE 4 9 2 5 1008.8 1008.7 0.0
13/07:30am 26.8 34.4 26.8 100 0.0 CALM 0 6 0 3 1008.5 1008.4 0.0
13/07:00am 25.8 32.8 25.8 100 0.0 CALM 0 0 0 0 1008.1 1008.0 0.0
13/06:30am 25.3 31.9 25.3 100 0.0 CALM 0 0 0 0 1007.6 1007.5 0.0
13/06:00am 25.7 32.6 25.7 100 0.0 CALM 0 0 0 0 1007.2 1007.1 0.0
13/05:30am 25.8 32.8 25.8 100 0.0 CALM 0 0 0 0 1006.7 1006.6 0.0
13/05:00am 26.0 33.1 26.0 100 0.0 CALM 0 0 0 0 1006.6 1006.5 0.0
13/04:30am 26.2 33.4 26.2 100 0.0 CALM 0 7 0 4 1006.3 1006.2 0.0
13/04:00am 26.5 33.5 26.5 100 0.0 N 2 9 1 5 1006.1 1006.0 0.0
13/03:30am 26.7 33.5 26.7 100 0.0 N 4 9 2 5 1006.1 1006.0 0.0
13/03:00am 27.0 33.6 27.0 100 0.0 NE 6 9 3 5 1006.4 1006.3 0.0
13/02:30am 26.8 33.1 26.8 100 0.0 NNE 7 22 4 12 1006.5 1006.4 0.0
13/02:00am 27.0 34.8 27.0 100 0.0 CALM 0 0 0 0 1006.1 1006.0 0.0
13/01:30am 27.1 34.9 27.1 100 0.0 CALM 0 0 0 0 1006.3 1006.2 0.0
13/01:00am 27.3 35.3 27.3 100 0.0 CALM 0 0 0 0 1006.7 1006.6 0.0
13/12:30am 27.6 35.8 27.6 100 0.0 CALM 0 0 0 0 1007.0 1006.9 0.0
13/12:00am 27.7 35.8 27.5 99 0.1 CALM 0 0 0 0 1007.3 1007.2 0.0
 
Date/Time
EST
Temp
°C
App
Temp
°C
Dew
Point
Rel
Hum
%
Delta-T
°C
Wind Press
QNH
hPa
Press
MSL
hPa
Rain
since 9 am
mm
Dir
 
Spd
km/h
Gust
km/h
Spd
kts
Gust
kts
12/11:30pm 27.8 34.7 27.6 99 0.1 SSW 7 9 4 5 1007.6 1007.5 0.0
12/11:00pm 28.0 34.9 27.7 98 0.2 SSW 7 11 4 6 1007.7 1007.6 0.0
12/10:30pm 28.0 34.4 27.5 97 0.4 SSW 9 11 5 6 1007.7 1007.6 0.0
12/10:00pm 28.1 35.0 27.4 96 0.5 S 6 9 3 5 1007.5 1007.4 0.0
12/09:30pm 28.6 35.5 27.7 95 0.7 SSW 7 9 4 5 1007.5 1007.4 0.0
12/09:00pm 28.9 36.1 27.8 94 0.8 SW 6 11 3 6 1007.6 1007.5 0.0
12/08:30pm 29.1 37.4 27.7 92 1.0 CALM 0 0 0 0 1007.4 1007.3 0.0
12/08:00pm 29.5 37.1 27.9 91 1.2 SW 4 9 2 5 1006.9 1006.8 0.0
12/07:30pm 30.0 37.6 27.8 88 1.6 SW 4 9 2 5 1006.5 1006.4 0.0
12/07:00pm 31.4 39.1 26.9 77 3.3 CALM 0 0 0 0 1005.9 1005.8 0.0
12/06:30pm 32.2 39.2 27.0 74 3.8 SE 4 9 2 5 1005.6 1005.5 0.0
12/06:00pm 33.4 39.8 26.9 69 4.7 ESE 7 11 4 6 1005.2 1005.1 0.0
12/05:30pm 33.5 39.6 27.0 69 4.7 SE 9 13 5 7 1005.1 1005.0 0.0
12/05:00pm 34.1 39.6 26.8 65 5.3 SE 11 15 6 8 1004.9 1004.8 0.0
12/04:30pm 34.6 41.6 27.8 68 5.0 SE 7 17 4 9 1004.8 1004.7 0.0
12/04:00pm 34.1 39.6 26.8 65 5.3 SSE 11 15 6 8 1005.0 1004.9 0.0
12/03:30pm 34.3 40.7 27.5 67 5.0 SSE 9 15 5 8 1005.2 1005.1 0.0
12/03:00pm 33.6 38.5 26.9 68 4.9 SE 15 20 8 11 1005.6 1005.5 0.0
12/02:30pm 34.8 41.2 28.0 68 5.0 ESE 11 20 6 11 1005.9 1005.8 0.0
12/02:00pm 34.3 40.0 27.0 65 5.3 E 11 17 6 9 1006.4 1006.3 0.0
12/01:30pm 33.8 40.4 27.8 71 4.4 E 9 17 5 9 1006.6 1006.5 0.0
12/01:00pm 32.7 39.0 27.4 73 3.9 ENE 9 19 5 10 1007.1 1007.0 0.0
12/12:30pm 32.7 39.0 27.4 73 3.9 NE 9 19 5 10 1007.8 1007.7 0.0
12/12:00pm 32.5 39.2 27.9 77 3.4 NE 9 17 5 9 1008.2 1008.1 0.0
12/11:30am 31.8 37.8 27.5 78 3.1 E 11 17 6 9 1008.7 1008.6 0.0
12/11:00am 31.5 38.3 28.0 82 2.6 NE 9 13 5 7 1009.0 1008.9 0.0
12/10:30am 30.0 35.7 27.0 84 2.2 NE 11 19 6 10 1009.3 1009.2 0.0
12/10:00am 29.2 34.9 27.0 88 1.6 ENE 11 17 6 9 1009.7 1009.6 0.0
12/09:30am 29.1 35.4 27.9 93 0.9 ESE 11 15 6 8 1009.9 1009.8 0.0
12/09:00am 27.3 33.1 26.6 96 0.5 E 9 15 5 8 1009.8 1009.7 0.0
12/08:30am 26.7 32.6 26.7 100 0.0 ESE 9 13 5 7 1009.5 1009.4 0.0
12/08:00am 26.0 32.3 26.0 100 0.0 ENE 4 9 2 5 1009.1 1009.0 0.0
12/07:30am 25.8 32.8 25.8 100 0.0 CALM 0 0 0 0 1009.1 1009.0 0.0
12/07:00am 25.6 32.4 25.6 100 0.0 CALM 0 0 0 0 1008.7 1008.6 0.0
12/06:30am 25.2 31.4 25.2 100 0.0 E 2 9 1 5 1008.4 1008.3 0.0
12/06:00am 25.6 31.3 25.6 100 0.0 ESE 6 7 3 4 1008.1 1008.0 0.0
12/05:30am 25.5 31.5 25.5 100 0.0 SE 4 7 2 4 1007.6 1007.5 0.0
12/05:00am 25.4 32.1 25.4 100 0.0 CALM 0 6 0 3 1007.2 1007.1 0.0
12/04:30am 25.3 30.8 25.3 100 0.0 NNE 6 7 3 4 1007.1 1007.0 0.0
12/04:00am 25.2 31.0 25.2 100 0.0 NNE 4 7 2 4 1007.2 1007.1 0.0
12/03:30am 25.1 30.3 25.1 100 0.0 NNE 7 9 4 5 1007.2 1007.1 0.0
12/03:00am 24.9 30.0 24.9 100 0.0 NNE 7 11 4 6 1007.3 1007.2 0.0
12/02:30am 24.9 30.0 24.9 100 0.0 NE 7 11 4 6 1007.8 1007.7 0.0
12/02:00am 25.0 29.0 25.0 100 0.0 NNE 13 19 7 10 1007.9 1007.8 0.0
12/01:41am 25.0 29.4 25.0 100 0.0 NE 11 19 6 10 1008.0 1007.9 0.0
12/01:30am 25.1 29.1 25.1 100 0.0 NE 13 22 7 12 1008.2 1008.1 0.0
12/01:00am 25.6 30.3 25.6 100 0.0 ENE 11 17 6 9 1008.6 1008.5 0.0
12/12:30am 25.8 30.7 25.8 100 0.0 NE 11 20 6 11 1008.8 1008.7 0.0
12/12:05am 26.0 29.9 26.0 100 0.0 NE 17 30 9 16 1008.9 1008.8 0.0
12/12:00am 26.1 30.4 26.1 100 0.0 NE 15 24 8 13 1008.9 1008.8 0.0
 
Date/Time
EST
Temp
°C
App
Temp
°C
Dew
Point
Rel
Hum
%
Delta-T
°C
Wind Press
QNH
hPa
Press
MSL
hPa
Rain
since 9 am
mm
Dir
 
Spd
km/h
Gust
km/h
Spd
kts
Gust
kts
11/11:30pm 27.0 32.2 26.8 99 0.1 ENE 13 26 7 14 1008.9 1008.8 0.0
11/11:00pm 27.3 33.2 27.3 100 0.0 NE 11 20 6 11 1008.5 1008.4 0.0
11/10:30pm 27.0 33.6 27.0 100 0.0 E 6 7 3 4 1008.6 1008.5 0.0
11/10:00pm 27.2 34.0 27.2 100 0.0 ESE 6 7 3 4 1008.1 1008.0 0.0
11/09:30pm 27.5 34.5 27.5 100 0.0 SE 6 9 3 5 1007.7 1007.6 0.0
11/09:00pm 27.3 33.9 27.3 100 0.0 SSE 7 11 4 6 1007.5 1007.4 0.0
11/08:30pm 27.3 33.4 27.1 99 0.1 S 9 11 5 6 1007.3 1007.2 0.0
11/08:00pm 27.6 34.2 27.3 98 0.2 SSW 7 11 4 6 1006.7 1006.6 0.0
11/07:30pm 27.6 34.5 27.6 100 0.0 S 7 11 4 6 1006.4 1006.3 0.0
11/07:00pm 27.6 34.1 27.6 100 0.0 SW 9 13 5 7 1005.8 1005.7 0.0
11/06:30pm 27.8 34.4 27.8 100 0.0 SW 9 13 5 7 1005.5 1005.4 0.0
11/06:00pm 27.8 33.3 27.8 100 0.0 SW 15 20 8 11 1005.6 1005.5 0.0
11/05:30pm 29.2 35.1 27.9 93 0.9 S 13 17 7 9 1005.0 1004.9 0.0
11/05:00pm 29.4 33.6 27.0 87 1.7 SSE 19 24 10 13 1004.4 1004.3 0.0
11/04:30pm 32.6 38.5 28.9 81 2.7 SE 17 22 9 12 1004.4 1004.3 0.0
11/04:00pm 33.1 40.0 27.4 72 4.2 NNE 6 17 3 9 1004.0 1003.9 0.0
11/03:30pm 32.8 39.6 27.3 73 4.0 NNE 6 9 3 5 1004.1 1004.0 0.0
11/03:00pm 33.3 40.4 28.0 74 3.9 N 7 13 4 7 1004.3 1004.2 0.0
11/02:30pm 33.1 40.1 27.8 74 3.9 NNE 7 15 4 8 1004.8 1004.7 0.0
11/02:00pm 32.8 39.3 28.2 77 3.4 NNE 11 19 6 10 1005.3 1005.2 0.0
11/01:30pm 32.1 39.3 27.8 78 3.1 NNE 6 13 3 7 1005.9 1005.8 0.0
11/01:00pm 32.3 39.1 28.0 78 3.1 NE 9 17 5 9 1006.4 1006.3 0.0
11/12:30pm 31.4 37.3 27.9 82 2.6 NE 13 22 7 12 1006.9 1006.8 0.0
11/12:00pm 31.7 37.7 28.0 81 2.7 NE 13 22 7 12 1007.0 1006.9 0.0
11/11:30am 30.7 36.9 27.7 84 2.2 NE 11 19 6 10 1007.3 1007.2 0.0
11/11:00am 28.8 35.0 27.2 91 1.2 NNE 9 15 5 8 1007.7 1007.6 0.0
11/10:30am 28.2 33.1 26.4 90 1.3 ENE 13 22 7 12 1008.2 1008.1 0.0
11/10:00am 28.9 34.3 27.7 93 0.9 ENE 15 24 8 13 1008.5 1008.4 0.0
11/09:30am 27.4 32.3 26.9 97 0.4 NE 15 20 8 11 1008.7 1008.6 0.0
11/09:00am 27.1 31.7 26.6 97 0.4 ENE 15 26 8 14 1008.7 1008.6 34.2
11/08:49am 27.0 31.8 26.8 99 0.1 NE 15 24 8 13 1008.7 1008.6 34.2
11/08:30am 26.6 30.9 26.6 100 0.0 NE 17 24 9 13 1008.6 1008.5 34.2
11/08:00am 26.4 30.9 26.4 100 0.0 ENE 15 22 8 12 1008.3 1008.2 34.2
11/07:47am 26.2 31.0 26.2 100 0.0 E 13 19 7 10 1008.1 1008.0 34.2
11/07:30am 26.0 31.0 26.0 100 0.0 ENE 11 20 6 11 1007.9 1007.8 34.2
11/07:00am 25.6 30.7 25.6 100 0.0 ENE 9 15 5 8 1007.8 1007.7 34.2
11/06:30am 25.5 30.6 25.5 100 0.0 NE 9 13 5 7 1007.5 1007.4 34.2
11/06:00am 25.7 30.9 25.7 100 0.0 ENE 9 13 5 7 1007.1 1007.0 34.2

Other Formats:

Comma delimited format used in spreadsheet applications
http://www.bom.gov.au/fwo/IDQ60801/IDQ60801.94268.axf

JavaScript Object Notation format (JSON) in row-major order
http://www.bom.gov.au/fwo/IDQ60801/IDQ60801.94268.json